Terminal Aerodrome Forecast
Issued by NWS Sioux Falls, SD

Home | Current Version | Previous Version | Graphics & Text | Print | Product List | Glossary On
Versions: 1 2 3 4 5 6 7 8 9 10 11 12 13 14 15 16 17 18 19
000
FTUS43 KFSD 281738
TAFHON
TAF
KHON 281738Z 2818/2918 17009KT P6SM SKC
     FM282300 09008KT P6SM SCT080
     FM290200 02010KT P6SM -SHRA OVC050
     FM290800 03010KT P6SM OVC010
     FM291700 07010KT P6SM BKN020=

USA.gov is the U.S. government's official web portal to all federal, state and local government web resources and services.